createdAt,value
2022-11-24T00:00:02.098Z,989.96
2022-11-24T00:05:02.180Z,989.91
2022-11-24T00:10:02.195Z,989.91
2022-11-24T00:20:02.036Z,990.01
2022-11-24T00:25:02.216Z,989.98
2022-11-24T00:30:02.014Z,989.9
2022-11-24T00:35:01.959Z,989.9
2022-11-24T00:40:01.947Z,989.93
2022-11-24T00:45:12.946Z,989.92
2022-11-24T00:50:02.131Z,989.85
2022-11-24T00:55:01.298Z,989.96
2022-11-24T01:00:02.524Z,990.11
2022-11-24T01:05:01.258Z,990.17
2022-11-24T01:10:01.670Z,990.28
2022-11-24T01:15:01.720Z,990.32
2022-11-24T01:20:01.354Z,990.37
2022-11-24T01:25:01.967Z,990.45
2022-11-24T01:30:01.943Z,990.52
2022-11-24T01:35:01.319Z,990.51
2022-11-24T01:40:01.470Z,990.6
2022-11-24T01:45:04.551Z,990.6
2022-11-24T01:50:01.702Z,990.57
2022-11-24T01:55:01.472Z,990.61
2022-11-24T02:00:01.379Z,990.61
2022-11-24T02:05:01.382Z,990.66
2022-11-24T02:10:01.685Z,990.68
2022-11-24T02:15:01.901Z,990.81
2022-11-24T02:20:02.059Z,990.84
2022-11-24T02:25:01.883Z,990.87
2022-11-24T02:30:02.192Z,990.95
2022-11-24T02:35:01.333Z,991
2022-11-24T02:40:01.783Z,990.95
2022-11-24T02:45:01.955Z,990.9
2022-11-24T02:50:02.227Z,990.88
2022-11-24T02:55:01.535Z,990.92
2022-11-24T03:00:02.077Z,990.79
2022-11-24T03:05:01.340Z,990.78
2022-11-24T03:10:01.525Z,990.81
2022-11-24T03:15:01.312Z,990.78
2022-11-24T03:20:04.900Z,990.81
2022-11-24T03:25:01.905Z,990.86
2022-11-24T03:30:02.137Z,990.84
2022-11-24T03:35:02.137Z,991.05
2022-11-24T03:40:02.200Z,991.14
2022-11-24T03:45:29.783Z,991.25
2022-11-24T03:50:01.879Z,991.22
2022-11-24T03:55:01.997Z,991.13
2022-11-24T04:00:01.593Z,991.04
2022-11-24T04:05:01.645Z,991.02
2022-11-24T04:10:01.771Z,991.19
2022-11-24T04:15:01.864Z,991.21
2022-11-24T04:20:02.008Z,991.27
2022-11-24T04:25:01.935Z,991.29
2022-11-24T04:30:02.206Z,991.34
2022-11-24T04:35:01.477Z,991.35
2022-11-24T04:40:02.004Z,991.34
2022-11-24T04:45:02.221Z,991.37
2022-11-24T04:50:01.828Z,991.47
2022-11-24T04:55:01.920Z,991.53
2022-11-24T05:00:02.206Z,991.59
2022-11-24T05:05:01.468Z,991.65
2022-11-24T05:10:01.994Z,991.66
2022-11-24T05:15:01.780Z,991.74
2022-11-24T05:20:01.883Z,991.83
2022-11-24T05:25:01.708Z,991.92
2022-11-24T05:30:01.646Z,991.94
2022-11-24T05:35:02.114Z,992.01
2022-11-24T05:40:02.091Z,992.07
2022-11-24T05:45:02.185Z,992.05
2022-11-24T05:50:01.399Z,992.18
2022-11-24T05:55:01.796Z,992.23
2022-11-24T06:00:01.463Z,992.32
2022-11-24T06:05:02.118Z,992.34
2022-11-24T06:10:02.762Z,992.4
2022-11-24T06:15:01.960Z,992.45
2022-11-24T06:20:01.932Z,992.54
2022-11-24T06:25:01.983Z,992.6
2022-11-24T06:30:01.713Z,992.67
2022-11-24T06:35:01.586Z,992.64
2022-11-24T06:40:01.777Z,992.71
2022-11-24T06:45:06.020Z,992.75
2022-11-24T06:50:01.682Z,992.85
2022-11-24T06:55:01.798Z,992.85
2022-11-24T07:00:01.783Z,992.99
2022-11-24T07:05:01.779Z,993.05
2022-11-24T07:10:01.601Z,993.22
2022-11-24T07:15:01.677Z,993.33
2022-11-24T07:20:01.784Z,993.31
2022-11-24T07:25:01.349Z,993.4
2022-11-24T07:30:01.707Z,993.51
2022-11-24T07:35:01.825Z,993.62
2022-11-24T07:40:01.323Z,993.65
2022-11-24T07:45:02.089Z,993.82
2022-11-24T07:50:01.885Z,993.91
2022-11-24T07:55:01.333Z,993.94
2022-11-24T08:00:01.616Z,994.03
2022-11-24T08:05:02.133Z,994.16
2022-11-24T08:10:01.345Z,994.23
2022-11-24T08:15:03.322Z,994.28
2022-11-24T08:20:02.166Z,994.31
2022-11-24T08:25:02.023Z,994.38
2022-11-24T08:30:01.879Z,994.44
2022-11-24T08:35:13.424Z,994.47
2022-11-24T08:40:02.076Z,994.49
2022-11-24T08:45:17.498Z,994.49
2022-11-24T08:50:01.885Z,994.57
2022-11-24T08:55:02.099Z,994.7
2022-11-24T09:00:01.828Z,994.82
2022-11-24T09:05:01.601Z,994.98
2022-11-24T09:10:01.530Z,995.07
2022-11-24T09:15:01.849Z,995.09
2022-11-24T09:20:01.608Z,995.14
2022-11-24T09:25:01.776Z,995.17
2022-11-24T09:30:01.743Z,995.25
2022-11-24T09:35:01.558Z,995.35
2022-11-24T09:40:01.467Z,995.44
2022-11-24T09:45:01.444Z,995.46
2022-11-24T09:50:02.209Z,995.64
2022-11-24T09:55:01.792Z,995.64
2022-11-24T10:00:01.851Z,995.68
2022-11-24T10:05:01.848Z,995.57
2022-11-24T10:10:02.141Z,995.67
2022-11-24T10:15:01.963Z,995.71
2022-11-24T10:20:01.722Z,995.76
2022-11-24T10:25:01.732Z,995.77
2022-11-24T10:30:01.555Z,995.83
2022-11-24T10:35:01.482Z,995.87
2022-11-24T10:40:01.594Z,996.01
2022-11-24T10:45:02.111Z,996.01
2022-11-24T10:50:01.993Z,996.08
2022-11-24T10:55:01.706Z,996.12
2022-11-24T11:00:01.713Z,996.1
2022-11-24T11:05:01.701Z,996.13
2022-11-24T11:10:01.488Z,996.05
2022-11-24T11:15:01.439Z,996.12
2022-11-24T11:20:02.590Z,996.1
2022-11-24T11:25:02.161Z,996.14
2022-11-24T11:31:16.830Z,996.19
2022-11-24T11:35:01.647Z,996.19
2022-11-24T11:40:01.652Z,996.3
2022-11-24T11:45:01.571Z,996.34
2022-11-24T11:50:01.481Z,996.34
2022-11-24T11:55:01.281Z,996.32
2022-11-24T12:00:02.117Z,996.35
2022-11-24T12:05:01.331Z,996.37
2022-11-24T12:10:01.946Z,996.38
2022-11-24T12:15:07.301Z,996.44
2022-11-24T12:20:01.718Z,996.35
2022-11-24T12:25:01.746Z,996.32
2022-11-24T12:30:01.757Z,996.31
2022-11-24T12:35:01.645Z,996.34
2022-11-24T12:40:01.593Z,996.4
2022-11-24T12:45:01.607Z,996.28
2022-11-24T12:50:01.583Z,996.27
2022-11-24T12:55:01.543Z,996.2
2022-11-24T13:00:01.582Z,996.17
2022-11-24T13:05:01.512Z,996.21
2022-11-24T13:10:01.809Z,996.3
2022-11-24T13:15:01.676Z,996.3
2022-11-24T13:20:01.417Z,996.4
2022-11-24T13:25:01.416Z,996.34
2022-11-24T13:30:01.718Z,996.37
2022-11-24T13:35:01.935Z,996.38
2022-11-24T13:40:01.854Z,996.49
2022-11-24T13:45:01.372Z,996.49
2022-11-24T13:50:02.110Z,996.55
2022-11-24T13:55:04.025Z,996.44
2022-11-24T14:00:01.402Z,996.48
2022-11-24T14:05:01.831Z,996.45
2022-11-24T14:10:01.723Z,996.47
2022-11-24T14:15:01.334Z,996.5
2022-11-24T14:20:01.764Z,996.53
2022-11-24T14:25:02.001Z,996.52
2022-11-24T14:30:01.734Z,996.49
2022-11-24T14:35:01.874Z,996.55
2022-11-24T14:40:01.775Z,996.61
2022-11-24T14:45:01.680Z,996.53
2022-11-24T14:50:01.889Z,996.52
2022-11-24T14:55:21.427Z,996.54
2022-11-24T15:00:02.053Z,996.59
2022-11-24T15:05:03.744Z,996.59
2022-11-24T15:10:02.030Z,996.67
2022-11-24T15:15:01.974Z,996.83
2022-11-24T15:20:01.997Z,996.91
2022-11-24T15:25:01.900Z,996.97
2022-11-24T15:30:01.743Z,997.06
2022-11-24T15:35:01.670Z,997.04
2022-11-24T15:40:01.723Z,996.97
2022-11-24T15:45:01.830Z,997.03
2022-11-24T15:50:01.669Z,996.95
2022-11-24T15:55:01.578Z,996.95
2022-11-24T16:00:01.609Z,996.86
2022-11-24T16:05:01.663Z,997
2022-11-24T16:10:01.714Z,997.09
2022-11-24T16:15:01.719Z,997.22
2022-11-24T16:20:01.786Z,997.2
2022-11-24T16:25:02.226Z,997.2
2022-11-24T16:30:02.038Z,997.2
2022-11-24T16:35:01.784Z,997.13
2022-11-24T16:40:01.826Z,997.15
2022-11-24T16:45:01.566Z,997.15
2022-11-24T16:50:01.541Z,997.11
2022-11-24T16:55:01.446Z,997.14
2022-11-24T17:00:02.154Z,997.13
2022-11-24T17:05:01.868Z,997.15
2022-11-24T17:10:01.938Z,997.14
2022-11-24T17:15:31.033Z,997.13
2022-11-24T17:20:01.247Z,997.21
2022-11-24T17:25:01.405Z,997.28
2022-11-24T17:30:01.319Z,997.35
2022-11-24T17:35:01.856Z,997.38
2022-11-24T17:40:26.856Z,997.43
2022-11-24T17:45:01.442Z,997.38
2022-11-24T17:50:01.483Z,997.41
2022-11-24T17:55:01.552Z,997.48
2022-11-24T18:00:01.378Z,997.5
2022-11-24T18:05:01.468Z,997.54
2022-11-24T18:10:01.425Z,997.59
2022-11-24T18:15:01.276Z,997.54
2022-11-24T18:20:01.281Z,997.49
2022-11-24T18:25:02.292Z,997.36
2022-11-24T18:30:01.806Z,997.39
2022-11-24T18:35:01.845Z,997.36
2022-11-24T18:40:01.857Z,997.39
2022-11-24T18:45:01.686Z,997.39
2022-11-24T18:50:01.491Z,997.25
2022-11-24T18:55:01.343Z,997.13
2022-11-24T19:00:01.591Z,997.15
2022-11-24T19:05:01.733Z,997.25
2022-11-24T19:10:01.760Z,997.28
2022-11-24T19:15:01.712Z,997.29
2022-11-24T19:20:01.603Z,997.28
2022-11-24T19:25:01.594Z,997.23
2022-11-24T19:30:01.591Z,997.23
2022-11-24T19:35:01.539Z,997.25
2022-11-24T19:40:01.610Z,997.23
2022-11-24T19:45:02.227Z,997.25
2022-11-24T19:50:05.995Z,997.25
2022-11-24T19:55:01.982Z,997.35
2022-11-24T20:00:01.564Z,997.39
2022-11-24T20:05:01.700Z,997.42
2022-11-24T20:10:07.359Z,997.41
2022-11-24T20:15:02.161Z,997.44
2022-11-24T20:20:02.143Z,997.43
2022-11-24T20:25:01.916Z,997.42
2022-11-24T20:30:01.965Z,997.33
2022-11-24T20:35:01.837Z,997.35
2022-11-24T20:40:01.405Z,997.35
2022-11-24T20:45:01.675Z,997.25
2022-11-24T20:50:01.565Z,997.21
2022-11-24T20:55:01.454Z,997.23
2022-11-24T21:00:01.483Z,997.2
2022-11-24T21:05:01.552Z,997.26
2022-11-24T21:10:01.374Z,997.3
2022-11-24T21:15:01.409Z,997.26
2022-11-24T21:20:01.972Z,997.24
2022-11-24T21:25:01.342Z,997.23
2022-11-24T21:30:01.264Z,997.19
2022-11-24T21:35:02.353Z,997.22
2022-11-24T21:40:01.249Z,997.19
2022-11-24T21:45:01.270Z,997.2
2022-11-24T21:50:01.520Z,997.21
2022-11-24T21:55:01.587Z,997.18
2022-11-24T22:00:01.583Z,997.14
2022-11-24T22:05:01.550Z,997.07
2022-11-24T22:10:01.653Z,997
2022-11-24T22:15:01.498Z,997.07
2022-11-24T22:20:01.652Z,996.98
2022-11-24T22:25:01.688Z,997.08
2022-11-24T22:30:01.549Z,997.09
2022-11-24T22:35:01.829Z,997.19
2022-11-24T22:40:01.587Z,997.17
2022-11-24T22:45:01.803Z,997.07
2022-11-24T22:50:01.753Z,997.01
2022-11-24T22:55:01.504Z,996.87
2022-11-24T23:00:01.462Z,996.81
2022-11-24T23:05:01.676Z,996.77
2022-11-24T23:10:01.607Z,996.78
2022-11-24T23:15:01.468Z,996.62
2022-11-24T23:20:01.928Z,996.5
2022-11-24T23:25:01.948Z,996.55
2022-11-24T23:30:01.870Z,996.82
2022-11-24T23:35:02.652Z,996.85
2022-11-24T23:40:01.593Z,996.76
2022-11-24T23:45:01.595Z,996.72
2022-11-24T23:50:01.500Z,996.69
2022-11-24T23:55:02.218Z,996.73
